createdAt,value
2023-01-06T00:03:28.301Z,6.61
2023-01-06T00:08:29.497Z,6.44
2023-01-06T00:13:30.674Z,6.61
2023-01-06T00:18:33.132Z,5.63
2023-01-06T00:23:33.160Z,5.63
2023-01-06T00:28:34.613Z,5.63
2023-01-06T00:33:33.005Z,5.63
2023-01-06T00:38:33.822Z,5.63
2023-01-06T00:43:33.028Z,5.63
2023-01-06T00:48:34.296Z,5.46
2023-01-06T00:53:35.783Z,5.46
2023-01-06T00:58:36.913Z,5.46
2023-01-06T01:03:39.460Z,5.29
2023-01-06T01:08:39.638Z,6.09
2023-01-06T01:13:38.751Z,6.09
2023-01-06T01:18:39.940Z,5.29
2023-01-06T01:23:41.089Z,5.29
2023-01-06T01:28:43.988Z,5.29
2023-01-06T01:33:43.111Z,5.29
2023-01-06T01:38:44.296Z,5.29
2023-01-06T01:43:45.457Z,5.29
2023-01-06T01:48:46.618Z,5.29
2023-01-06T01:53:46.763Z,5.29
2023-01-06T01:58:48.034Z,5.11
2023-01-06T02:03:49.245Z,4.94
2023-01-06T02:08:50.409Z,5.73
2023-01-06T02:13:51.679Z,5.73
2023-01-06T02:18:52.879Z,5.73
2023-01-06T02:23:54.378Z,5.55
2023-01-06T02:28:53.870Z,5.55
2023-01-06T02:33:52.992Z,5.55
2023-01-06T02:38:54.151Z,5.73
2023-01-06T02:43:55.287Z,5.55
2023-01-06T02:48:57.902Z,4.58
2023-01-06T02:53:57.018Z,4.76
2023-01-06T02:58:58.493Z,4.76
2023-01-06T03:03:57.686Z,4.76
2023-01-06T03:08:58.888Z,4.76
2023-01-06T03:14:00.112Z,4.76
2023-01-06T03:19:01.245Z,4.58
2023-01-06T03:24:02.417Z,4.58
2023-01-06T03:29:03.605Z,4.58
2023-01-06T03:34:05.921Z,4.58
2023-01-06T03:39:05.079Z,4.58
2023-01-06T03:44:07.246Z,4.39
2023-01-06T03:49:06.413Z,4.39
2023-01-06T03:54:07.564Z,4.39
2023-01-06T03:59:08.720Z,4.39
2023-01-06T04:04:09.904Z,4.39
2023-01-06T04:09:11.114Z,4.58
2023-01-06T04:14:12.388Z,4.58
2023-01-06T04:19:13.654Z,3.60
2023-01-06T04:24:14.850Z,3.96
2023-01-06T04:29:16.022Z,3.83
2023-01-06T04:34:17.220Z,3.83
2023-01-06T04:39:18.358Z,4.00
2023-01-06T04:44:19.600Z,4.16
2023-01-06T04:49:25.726Z,3.18
2023-01-06T04:54:20.894Z,3.34
2023-01-06T04:59:22.098Z,3.34
2023-01-06T05:04:23.283Z,3.50
2023-01-06T05:09:24.432Z,3.96
2023-01-06T05:14:25.667Z,3.65
2023-01-06T05:19:26.838Z,2.82
2023-01-06T05:24:28.083Z,2.82
2023-01-06T05:29:29.338Z,2.82
2023-01-06T05:34:30.468Z,2.82
2023-01-06T05:39:31.653Z,2.82
2023-01-06T05:44:32.838Z,2.66
2023-01-06T05:49:34.185Z,2.82
2023-01-06T05:54:35.397Z,3.12
2023-01-06T05:59:36.623Z,3.12
2023-01-06T06:04:37.864Z,3.27
2023-01-06T06:09:39.085Z,2.42
2023-01-06T06:14:40.370Z,2.42
2023-01-06T06:19:41.602Z,2.28
2023-01-06T06:24:42.813Z,2.42
2023-01-06T06:29:44.042Z,2.42
2023-01-06T06:34:46.270Z,2.28
2023-01-06T06:39:45.416Z,2.13
2023-01-06T06:44:46.599Z,2.42
2023-01-06T06:49:48.727Z,2.57
2023-01-06T06:54:48.010Z,2.57
2023-01-06T06:59:49.233Z,2.71
2023-01-06T07:04:50.442Z,2.57
2023-01-06T07:09:51.648Z,1.43
2023-01-06T07:14:59.603Z,1.57
2023-01-06T07:19:52.828Z,2.57
2023-01-06T07:24:54.107Z,2.42
2023-01-06T07:29:55.330Z,2.57
2023-01-06T07:34:56.476Z,2.57
2023-01-06T07:40:41.613Z,2.57
2023-01-06T07:44:58.793Z,2.71
2023-01-06T07:49:59.923Z,2.57
2023-01-06T07:55:01.091Z,2.71
2023-01-06T08:00:02.311Z,2.71
2023-01-06T08:05:03.467Z,2.57
2023-01-06T08:10:04.685Z,2.42
2023-01-06T08:15:05.840Z,2.57
2023-01-06T08:20:06.975Z,2.57
2023-01-06T08:25:08.135Z,2.86
2023-01-06T08:30:09.355Z,2.71
2023-01-06T08:35:10.546Z,2.57
2023-01-06T08:40:11.751Z,2.57
2023-01-06T08:45:12.895Z,3.42
2023-01-06T08:50:14.075Z,3.27
2023-01-06T08:55:15.261Z,3.71
2023-01-06T09:00:16.475Z,3.86
2023-01-06T09:05:17.776Z,3.86
2023-01-06T09:10:18.971Z,3.86
2023-01-06T09:15:20.131Z,4.71
2023-01-06T09:20:21.284Z,4.41
2023-01-06T09:25:22.495Z,4.27
2023-01-06T09:30:23.679Z,4.27
2023-01-06T09:35:24.855Z,4.27
2023-01-06T09:40:26.046Z,4.95
2023-01-06T09:45:27.209Z,4.80
2023-01-06T09:50:28.354Z,4.11
2023-01-06T09:55:31.463Z,5.11
2023-01-06T10:00:30.645Z,4.95
2023-01-06T10:05:32.130Z,5.31
2023-01-06T10:10:31.295Z,5.15
2023-01-06T10:15:32.514Z,4.82
2023-01-06T10:20:34.609Z,4.98
2023-01-06T10:25:33.763Z,5.80
2023-01-06T10:30:40.208Z,5.29
2023-01-06T10:35:34.862Z,5.29
2023-01-06T10:40:36.018Z,6.09
2023-01-06T10:45:37.209Z,5.37
2023-01-06T10:50:41.369Z,5.37
2023-01-06T10:55:38.546Z,5.37
2023-01-06T11:00:46.985Z,5.77
2023-01-06T11:05:40.087Z,4.99
2023-01-06T11:10:41.262Z,5.77
2023-01-06T11:15:42.394Z,5.96
2023-01-06T11:20:43.588Z,5.96
2023-01-06T11:25:45.782Z,5.96
2023-01-06T11:30:46.912Z,6.15
2023-01-06T11:35:46.119Z,6.15
2023-01-06T11:40:47.242Z,6.15
2023-01-06T11:45:49.536Z,6.15
2023-01-06T11:50:48.741Z,6.34
2023-01-06T11:55:49.909Z,6.52
2023-01-06T12:00:51.037Z,6.34
2023-01-06T12:05:53.158Z,7.31
2023-01-06T12:10:52.283Z,7.12
2023-01-06T12:15:54.465Z,6.93
2023-01-06T12:20:54.093Z,7.12
2023-01-06T12:25:53.285Z,7.12
2023-01-06T12:30:57.477Z,7.12
2023-01-06T12:35:55.681Z,6.93
2023-01-06T12:40:54.923Z,7.70
2023-01-06T12:45:58.032Z,7.31
2023-01-06T12:50:57.488Z,7.31
2023-01-06T12:55:58.600Z,7.31
2023-01-06T13:00:59.749Z,7.51
2023-01-06T13:06:00.954Z,7.31
2023-01-06T13:11:02.058Z,6.34
2023-01-06T13:16:03.188Z,6.74
2023-01-06T13:21:05.374Z,6.74
2023-01-06T13:26:05.476Z,6.93
2023-01-06T13:31:04.660Z,7.12
2023-01-06T13:36:05.804Z,6.34
2023-01-06T13:41:07.986Z,6.34
2023-01-06T13:46:07.148Z,6.52
2023-01-06T13:51:08.322Z,6.52
2023-01-06T13:56:11.434Z,6.52
2023-01-06T14:01:10.749Z,6.52
2023-01-06T14:06:12.928Z,6.52
2023-01-06T14:11:12.083Z,6.71
2023-01-06T14:16:13.229Z,6.71
2023-01-06T14:21:14.425Z,6.71
2023-01-06T14:26:16.612Z,6.71
2023-01-06T14:31:16.759Z,5.91
2023-01-06T14:36:15.950Z,6.09
2023-01-06T14:41:17.215Z,6.09
2023-01-06T14:46:18.593Z,6.09
2023-01-06T14:51:19.788Z,6.09
2023-01-06T14:56:20.959Z,6.27
2023-01-06T15:01:22.262Z,5.46
2023-01-06T15:06:25.452Z,5.63
2023-01-06T15:11:25.647Z,5.63
2023-01-06T15:16:24.801Z,5.80
2023-01-06T15:21:25.973Z,5.97
2023-01-06T15:26:27.094Z,5.80
2023-01-06T15:31:28.266Z,6.13
2023-01-06T15:36:29.462Z,5.97
2023-01-06T15:41:30.618Z,4.98
2023-01-06T15:46:32.798Z,5.47
2023-01-06T15:51:31.939Z,5.47
2023-01-06T15:56:34.047Z,5.31
2023-01-06T16:01:34.291Z,5.31
2023-01-06T16:06:35.419Z,5.63
2023-01-06T16:11:34.602Z,4.48
2023-01-06T16:16:36.079Z,4.80
2023-01-06T16:21:37.308Z,5.11
2023-01-06T16:26:39.069Z,4.95
2023-01-06T16:31:38.321Z,4.95
2023-01-06T16:36:40.550Z,4.95
2023-01-06T16:41:44.642Z,5.11
2023-01-06T16:46:39.833Z,4.95
2023-01-06T16:51:44.796Z,5.11
2023-01-06T16:56:42.089Z,4.95
2023-01-06T17:01:43.374Z,4.95
2023-01-06T17:06:44.573Z,3.96
2023-01-06T17:11:45.749Z,3.96
2023-01-06T17:16:45.865Z,4.11
2023-01-06T17:21:47.085Z,4.11
2023-01-06T17:26:48.241Z,4.27
2023-01-06T17:31:49.536Z,4.27
2023-01-06T17:36:50.776Z,4.11
2023-01-06T17:41:53.997Z,4.27
2023-01-06T17:46:53.257Z,3.96
2023-01-06T17:51:54.488Z,3.96
2023-01-06T17:56:55.693Z,4.56
2023-01-06T18:01:56.867Z,4.41
2023-01-06T18:06:58.063Z,4.27
2023-01-06T18:12:00.251Z,4.41
2023-01-06T18:16:59.450Z,4.41
2023-01-06T18:22:01.597Z,4.27
2023-01-06T18:27:00.770Z,4.11
2023-01-06T18:32:01.924Z,4.11
2023-01-06T18:37:03.263Z,4.27
2023-01-06T18:42:05.850Z,5.26
2023-01-06T18:47:05.286Z,5.11
2023-01-06T18:52:07.733Z,5.41
2023-01-06T18:57:07.272Z,5.11
2023-01-06T19:02:06.603Z,5.26
2023-01-06T19:07:07.871Z,5.26
2023-01-06T19:12:09.317Z,5.26
2023-01-06T19:17:08.662Z,3.96
2023-01-06T19:22:09.922Z,3.96
2023-01-06T19:27:11.153Z,3.96
2023-01-06T19:32:12.355Z,4.11
2023-01-06T19:37:13.722Z,4.27
2023-01-06T19:42:14.885Z,4.27
2023-01-06T19:47:16.103Z,4.27
2023-01-06T19:52:19.354Z,4.27
2023-01-06T19:57:18.568Z,4.27
2023-01-06T20:02:20.090Z,4.41
2023-01-06T20:07:19.483Z,4.41
2023-01-06T20:12:20.868Z,4.41
2023-01-06T20:17:21.167Z,4.56
2023-01-06T20:22:20.339Z,5.56
2023-01-06T20:27:21.528Z,5.41
2023-01-06T20:32:22.698Z,5.26
2023-01-06T20:37:24.019Z,5.11
2023-01-06T20:42:25.353Z,4.95
2023-01-06T20:47:26.649Z,5.11
2023-01-06T20:52:27.808Z,5.11
2023-01-06T20:57:29.012Z,4.95
2023-01-06T21:02:30.317Z,5.11
2023-01-06T21:07:31.661Z,4.95
2023-01-06T21:12:32.835Z,4.95
2023-01-06T21:17:34.059Z,5.11
2023-01-06T21:22:35.279Z,4.95
2023-01-06T21:27:36.516Z,3.65
2023-01-06T21:32:38.672Z,4.48
2023-01-06T21:37:37.890Z,4.32
2023-01-06T21:42:38.992Z,4.00
2023-01-06T21:47:40.177Z,4.00
2023-01-06T21:52:41.337Z,3.83
2023-01-06T21:57:42.573Z,3.83
2023-01-06T22:02:43.758Z,3.83
2023-01-06T22:07:44.904Z,3.67
2023-01-06T22:12:48.028Z,3.67
2023-01-06T22:17:51.220Z,3.50
2023-01-06T22:22:48.425Z,3.50
2023-01-06T22:27:49.600Z,3.50
2023-01-06T22:32:49.855Z,2.69
2023-01-06T22:37:56.941Z,2.85
2023-01-06T22:42:52.098Z,3.18
2023-01-06T22:47:53.281Z,3.18
2023-01-06T22:52:55.473Z,3.18
2023-01-06T22:57:54.710Z,3.34
2023-01-06T23:02:55.912Z,2.51
2023-01-06T23:07:57.183Z,2.51
2023-01-06T23:12:58.305Z,2.66
2023-01-06T23:17:59.499Z,2.82
2023-01-06T23:23:00.692Z,2.82
2023-01-06T23:28:01.857Z,2.82
2023-01-06T23:33:03.036Z,1.83
2023-01-06T23:38:04.191Z,1.98
2023-01-06T23:43:05.323Z,1.98
2023-01-06T23:48:10.362Z,1.98
2023-01-06T23:53:09.509Z,1.98
2023-01-06T23:58:08.670Z,2.13
